»·PEaware :: N5744K KVNY-KMYF

N5744K :: KVNY-KMYF

FLIGHT INFORMATION

Flight Status: Arrived
Operator: Privately registered:
United States
More flights under this callsign
Pilot: Bradley G. (33369)
Aircraft: CESSNA 172 SKYHAWK
(C172)
More flights by this aircraft type
Origin: KVNY Van Nuys
United States
Destination: KMYF Montgomery
United States
More flights between these airports :: More routes between these airports
Route: KSMO, LAX SFRA, VPLVT, ALBAS, VPLDP
File this flight plan on PilotEdge
Remarks:
Altitude:
(Current/Filed)
7,500ft
Speed:
(Current/Filed)
120kts
Departed: 31-Jan-21 05:42 PM
Arrived: 31-Jan-21 06:49 PM
Distance/Time
Traveled:
108nm/1:07
Distance/Time
To Go:
Arrived

Flight Plot

Page will automatically refresh every two minutes.

Flight plan parsing failed; only flown route is shown


Map Options




Map Legend


Flown Route
Filed Route
Departure Airport
Arrival Airport
Navaid (VOR, NDB)
Fix

Horizontal Profiles

Position Reports

Time Latitude Longitude Heading Altitude Ground
Speed
31-Jan-21 17:15 34.205631 -118.491678 268 775ft 0kts
31-Jan-21 17:16 34.205631 -118.491678 268 775ft 0kts
31-Jan-21 17:17 34.205631 -118.491678 268 775ft 0kts
31-Jan-21 17:18 34.205631 -118.491678 268 775ft 0kts
31-Jan-21 17:19 34.205631 -118.491678 268 773ft 0kts
31-Jan-21 17:20 34.205631 -118.491678 268 773ft 0kts
31-Jan-21 17:21 34.205631 -118.491678 268 773ft 0kts
31-Jan-21 17:22 34.205631 -118.491678 268 773ft 0kts
31-Jan-21 17:23 34.205631 -118.491678 268 773ft 0kts
31-Jan-21 17:24 34.205631 -118.491678 268 773ft 0kts
31-Jan-21 17:25 34.205631 -118.491678 268 773ft 0kts
31-Jan-21 17:26 34.205631 -118.491678 268 773ft 0kts
31-Jan-21 17:27 34.205631 -118.491678 268 773ft 0kts
31-Jan-21 17:28 34.205631 -118.491678 268 773ft 0kts
31-Jan-21 17:29 34.205631 -118.491678 268 773ft 0kts
31-Jan-21 17:30 34.205631 -118.491678 268 773ft 0kts
31-Jan-21 17:31 34.205631 -118.491678 268 773ft 0kts
31-Jan-21 17:32 34.205631 -118.491678 268 773ft 1kts
31-Jan-21 17:33 34.205631 -118.491678 268 773ft 2kts
31-Jan-21 17:34 34.205631 -118.491676 268 773ft 0kts
31-Jan-21 17:35 34.205319 -118.491289 153 773ft 0kts
31-Jan-21 17:37 34.201051 -118.490395 176 755ft 22kts
31-Jan-21 17:38 34.196935 -118.490003 69 749ft 0kts
31-Jan-21 17:39 34.196935 -118.490001 67 749ft 0kts
31-Jan-21 17:40 34.196935 -118.490001 67 749ft 0kts
31-Jan-21 17:41 34.196996 -118.489873 60 749ft 7kts
31-Jan-21 17:42 34.201807 -118.489618 354 788ft 59kts
31-Jan-21 17:43 34.217178 -118.491354 348 1501ft 49kts
31-Jan-21 17:44 34.208373 -118.509423 181 1930ft 98kts
31-Jan-21 17:45 34.177120 -118.509974 182 2091ft 129kts
31-Jan-21 17:46 34.141911 -118.511119 165 2286ft 117kts
31-Jan-21 17:47 34.108832 -118.506290 174 2495ft 118kts
31-Jan-21 17:48 34.082635 -118.504400 171 3446ft 85kts
31-Jan-21 17:49 34.054220 -118.496737 143 3551ft 118kts
31-Jan-21 17:50 34.026861 -118.475150 150 3415ft 118kts
31-Jan-21 17:51 34.001317 -118.454564 146 3570ft 112kts
31-Jan-21 17:52 33.971843 -118.439181 147 3636ft 113kts
31-Jan-21 17:53 33.949413 -118.408554 126 3502ft 118kts
31-Jan-21 17:53 33.926920 -118.389628 138 3484ft 117kts
31-Jan-21 17:55 33.898359 -118.360273 142 3555ft 114kts
31-Jan-21 17:56 33.871538 -118.340296 147 3680ft 114kts
31-Jan-21 17:56 33.846907 -118.323705 147 3560ft 118kts
31-Jan-21 17:57 33.819391 -118.302761 146 3464ft 112kts
31-Jan-21 17:58 33.791983 -118.285714 147 3489ft 111kts
31-Jan-21 17:59 33.765904 -118.266560 142 3505ft 111kts
31-Jan-21 18:00 33.738550 -118.249038 163 3512ft 112kts
31-Jan-21 18:01 33.710638 -118.234596 123 3517ft 108kts
31-Jan-21 18:02 33.695635 -118.205146 125 3912ft 88kts
31-Jan-21 18:03 33.680186 -118.183702 129 4546ft 84kts
31-Jan-21 18:04 33.664303 -118.162856 130 5102ft 84kts
31-Jan-21 18:05 33.647679 -118.141286 131 5479ft 100kts
31-Jan-21 18:06 33.626939 -118.114539 131 5479ft 113kts
31-Jan-21 18:07 33.605587 -118.086957 131 5477ft 112kts
31-Jan-21 18:08 33.582596 -118.062596 139 5740ft 102kts
31-Jan-21 18:09 33.560572 -118.041440 139 6213ft 101kts
31-Jan-21 18:10 33.538615 -118.019555 138 6605ft 103kts
31-Jan-21 18:11 33.524593 -117.992677 96 7063ft 88kts
31-Jan-21 18:12 33.519414 -117.963934 103 7467ft 90kts
31-Jan-21 18:13 33.511413 -117.930032 105 7488ft 114kts
31-Jan-21 18:14 33.502372 -117.893050 105 7487ft 116kts
31-Jan-21 18:15 33.493253 -117.855811 105 7488ft 116kts
31-Jan-21 18:16 33.484118 -117.818562 105 7488ft 116kts
31-Jan-21 18:17 33.475000 -117.781339 105 7487ft 116kts
31-Jan-21 18:18 33.465903 -117.744038 105 7487ft 116kts
31-Jan-21 18:19 33.454458 -117.708166 133 7488ft 116kts
31-Jan-21 18:20 33.428609 -117.684498 143 7487ft 117kts
31-Jan-21 18:21 33.402444 -117.661035 142 7478ft 117kts
31-Jan-21 18:22 33.376413 -117.637644 142 7478ft 117kts
31-Jan-21 18:23 33.350288 -117.614193 142 7478ft 117kts
31-Jan-21 18:24 33.324454 -117.590419 141 7478ft 117kts
31-Jan-21 18:25 33.298899 -117.567170 142 7478ft 117kts
31-Jan-21 18:26 33.272927 -117.543903 142 7471ft 117kts
31-Jan-21 18:27 33.244019 -117.518055 142 6585ft 133kts
31-Jan-21 18:28 33.214408 -117.491572 142 5687ft 132kts
31-Jan-21 18:29 33.187598 -117.467603 141 5484ft 109kts
31-Jan-21 18:30 33.163822 -117.446345 141 5485ft 105kts
31-Jan-21 18:31 33.140343 -117.425374 141 5486ft 105kts
31-Jan-21 18:32 33.116775 -117.404361 141 5404ft 112kts
31-Jan-21 18:33 33.089004 -117.379648 141 4614ft 129kts
31-Jan-21 18:34 33.059408 -117.354896 147 3812ft 129kts
31-Jan-21 18:35 33.029942 -117.334985 148 3484ft 109kts
31-Jan-21 18:36 33.004109 -117.317821 148 3486ft 104kts
31-Jan-21 18:37 32.978229 -117.300655 148 3487ft 107kts
31-Jan-21 18:38 32.951944 -117.283273 148 3478ft 108kts
31-Jan-21 18:39 32.923911 -117.265188 149 3149ft 121kts
31-Jan-21 18:40 32.894363 -117.245919 148 2650ft 122kts
31-Jan-21 18:41 32.864668 -117.226182 145 2277ft 116kts
31-Jan-21 18:42 32.843563 -117.198975 102 1758ft 115kts
31-Jan-21 18:43 32.833515 -117.163473 106 1361ft 110kts
31-Jan-21 18:44 32.826366 -117.129760 103 1492ft 102kts
31-Jan-21 18:45 32.817474 -117.100286 137 1416ft 87kts
31-Jan-21 18:46 32.806001 -117.114107 297 900ft 78kts
31-Jan-21 18:47 32.814736 -117.136043 298 423ft 54kts
31-Jan-21 18:48 32.815810 -117.140918 246 421ft 0kts
31-Jan-21 18:49 32.815239 -117.142350 235 423ft 1kts
31-Jan-21 18:50 32.813472 -117.140136 171 423ft 7kts
31-Jan-21 18:51 32.813019 -117.140194 270 422ft 0kts
31-Jan-21 18:52 32.813019 -117.140194 270 422ft 0kts
31-Jan-21 18:53 32.813019 -117.140194 270 422ft 0kts

Navigation Log

Ident Type
Flight plan parsing failed, navigation log unavailable